sensor_id;sensor_type;location;lat;lon;timestamp;P1;durP1;ratioP1;P2;durP2;ratioP2
41925;SDS011;27615;51.826;5.692;2022-10-16T00:00:33;5.00;;;2.10;;
41925;SDS011;27615;51.826;5.692;2022-10-16T00:03:00;7.38;;;2.28;;
41925;SDS011;27615;51.826;5.692;2022-10-16T00:05:26;7.05;;;2.72;;
41925;SDS011;27615;51.826;5.692;2022-10-16T00:07:51;3.90;;;1.83;;
41925;SDS011;27615;51.826;5.692;2022-10-16T00:10:17;6.13;;;2.22;;
41925;SDS011;27615;51.826;5.692;2022-10-16T00:12:42;5.53;;;2.22;;
41925;SDS011;27615;51.826;5.692;2022-10-16T00:15:08;5.78;;;2.45;;
41925;SDS011;27615;51.826;5.692;2022-10-16T00:17:34;5.25;;;2.45;;
41925;SDS011;27615;51.826;5.692;2022-10-16T00:19:59;6.05;;;2.40;;
41925;SDS011;27615;51.826;5.692;2022-10-16T00:22:25;4.65;;;1.95;;
41925;SDS011;27615;51.826;5.692;2022-10-16T00:24:50;6.55;;;2.80;;
41925;SDS011;27615;51.826;5.692;2022-10-16T00:27:16;7.47;;;2.83;;
41925;SDS011;27615;51.826;5.692;2022-10-16T00:29:42;6.95;;;2.80;;
41925;SDS011;27615;51.826;5.692;2022-10-16T00:32:08;4.32;;;2.53;;
41925;SDS011;27615;51.826;5.692;2022-10-16T00:34:34;9.70;;;2.85;;
41925;SDS011;27615;51.826;5.692;2022-10-16T00:37:00;5.18;;;2.50;;
41925;SDS011;27615;51.826;5.692;2022-10-16T00:39:25;5.47;;;3.45;;
41925;SDS011;27615;51.826;5.692;2022-10-16T00:41:51;5.50;;;2.75;;
41925;SDS011;27615;51.826;5.692;2022-10-16T00:47:15;6.93;;;2.60;;
41925;SDS011;27615;51.826;5.692;2022-10-16T00:50:04;4.68;;;2.67;;
41925;SDS011;27615;51.826;5.692;2022-10-16T00:52:31;5.20;;;2.80;;
41925;SDS011;27615;51.826;5.692;2022-10-16T00:54:57;5.68;;;2.55;;
41925;SDS011;27615;51.826;5.692;2022-10-16T00:57:23;5.32;;;3.17;;
41925;SDS011;27615;51.826;5.692;2022-10-16T00:59:49;7.10;;;3.20;;
41925;SDS011;27615;51.826;5.692;2022-10-16T01:02:16;6.85;;;2.50;;
41925;SDS011;27615;51.826;5.692;2022-10-16T01:04:46;4.20;;;3.25;;
41925;SDS011;27615;51.826;5.692;2022-10-16T01:07:34;5.38;;;2.92;;
41925;SDS011;27615;51.826;5.692;2022-10-16T01:12:46;7.65;;;2.92;;
41925;SDS011;27615;51.826;5.692;2022-10-16T01:15:24;6.28;;;3.08;;
41925;SDS011;27615;51.826;5.692;2022-10-16T01:20:35;5.57;;;2.63;;
41925;SDS011;27615;51.826;5.692;2022-10-16T01:23:10;4.70;;;2.92;;
41925;SDS011;27615;51.826;5.692;2022-10-16T01:31:41;3.88;;;2.45;;
41925;SDS011;27615;51.826;5.692;2022-10-16T01:34:13;8.57;;;2.38;;
41925;SDS011;27615;51.826;5.692;2022-10-16T01:36:52;7.57;;;2.67;;
41925;SDS011;27615;51.826;5.692;2022-10-16T01:39:21;5.90;;;2.88;;
41925;SDS011;27615;51.826;5.692;2022-10-16T01:41:51;4.60;;;2.42;;
41925;SDS011;27615;51.826;5.692;2022-10-16T01:44:25;4.60;;;2.50;;
41925;SDS011;27615;51.826;5.692;2022-10-16T01:46:54;3.95;;;2.03;;
41925;SDS011;27615;51.826;5.692;2022-10-16T01:49:21;3.10;;;2.10;;
41925;SDS011;27615;51.826;5.692;2022-10-16T01:51:50;4.47;;;2.15;;
41925;SDS011;27615;51.826;5.692;2022-10-16T01:54:19;3.50;;;1.98;;
41925;SDS011;27615;51.826;5.692;2022-10-16T01:56:47;4.55;;;2.13;;
41925;SDS011;27615;51.826;5.692;2022-10-16T01:59:16;4.30;;;2.10;;
41925;SDS011;27615;51.826;5.692;2022-10-16T02:01:45;6.03;;;2.05;;
41925;SDS011;27615;51.826;5.692;2022-10-16T02:04:15;4.57;;;2.45;;
41925;SDS011;27615;51.826;5.692;2022-10-16T02:06:52;5.88;;;2.00;;
41925;SDS011;27615;51.826;5.692;2022-10-16T02:09:18;3.15;;;1.83;;
41925;SDS011;27615;51.826;5.692;2022-10-16T02:11:43;3.00;;;1.98;;
41925;SDS011;27615;51.826;5.692;2022-10-16T02:14:09;4.13;;;2.28;;
41925;SDS011;27615;51.826;5.692;2022-10-16T02:16:36;3.85;;;2.10;;
41925;SDS011;27615;51.826;5.692;2022-10-16T02:19:04;3.70;;;2.00;;
41925;SDS011;27615;51.826;5.692;2022-10-16T02:21:42;6.63;;;2.50;;
41925;SDS011;27615;51.826;5.692;2022-10-16T02:26:57;3.30;;;2.13;;
41925;SDS011;27615;51.826;5.692;2022-10-16T02:29:29;4.28;;;2.13;;
41925;SDS011;27615;51.826;5.692;2022-10-16T02:31:58;3.45;;;2.20;;
41925;SDS011;27615;51.826;5.692;2022-10-16T02:34:27;3.90;;;1.90;;
41925;SDS011;27615;51.826;5.692;2022-10-16T02:36:55;4.50;;;2.30;;
41925;SDS011;27615;51.826;5.692;2022-10-16T02:39:22;4.85;;;2.00;;
41925;SDS011;27615;51.826;5.692;2022-10-16T02:41:47;3.05;;;2.15;;
41925;SDS011;27615;51.826;5.692;2022-10-16T02:44:13;4.18;;;2.40;;
41925;SDS011;27615;51.826;5.692;2022-10-16T02:46:38;3.53;;;1.80;;
41925;SDS011;27615;51.826;5.692;2022-10-16T02:49:04;3.47;;;1.75;;
41925;SDS011;27615;51.826;5.692;2022-10-16T02:51:29;3.30;;;1.83;;
41925;SDS011;27615;51.826;5.692;2022-10-16T02:53:55;2.55;;;1.70;;
41925;SDS011;27615;51.826;5.692;2022-10-16T02:56:20;3.88;;;1.85;;
41925;SDS011;27615;51.826;5.692;2022-10-16T02:58:46;3.00;;;1.70;;
41925;SDS011;27615;51.826;5.692;2022-10-16T03:01:12;4.18;;;2.03;;
41925;SDS011;27615;51.826;5.692;2022-10-16T03:03:39;3.75;;;1.88;;
41925;SDS011;27615;51.826;5.692;2022-10-16T03:06:04;4.28;;;1.73;;
41925;SDS011;27615;51.826;5.692;2022-10-16T03:08:30;3.72;;;2.10;;
41925;SDS011;27615;51.826;5.692;2022-10-16T03:10:56;3.53;;;1.70;;
41925;SDS011;27615;51.826;5.692;2022-10-16T03:13:21;3.70;;;2.00;;
41925;SDS011;27615;51.826;5.692;2022-10-16T03:15:47;3.88;;;1.63;;
41925;SDS011;27615;51.826;5.692;2022-10-16T03:18:12;5.38;;;1.73;;
41925;SDS011;27615;51.826;5.692;2022-10-16T03:20:38;3.03;;;1.70;;
41925;SDS011;27615;51.826;5.692;2022-10-16T03:23:03;3.70;;;1.67;;
41925;SDS011;27615;51.826;5.692;2022-10-16T03:25:29;4.72;;;1.83;;
41925;SDS011;27615;51.826;5.692;2022-10-16T03:27:55;5.13;;;1.63;;
41925;SDS011;27615;51.826;5.692;2022-10-16T03:30:20;2.63;;;1.75;;
41925;SDS011;27615;51.826;5.692;2022-10-16T03:32:46;3.15;;;2.15;;
41925;SDS011;27615;51.826;5.692;2022-10-16T03:35:11;3.83;;;1.95;;
41925;SDS011;27615;51.826;5.692;2022-10-16T03:37:37;3.92;;;1.67;;
41925;SDS011;27615;51.826;5.692;2022-10-16T03:40:03;3.47;;;1.55;;
41925;SDS011;27615;51.826;5.692;2022-10-16T03:42:30;3.47;;;1.38;;
41925;SDS011;27615;51.826;5.692;2022-10-16T03:44:55;2.28;;;1.88;;
41925;SDS011;27615;51.826;5.692;2022-10-16T03:47:21;5.85;;;1.85;;
41925;SDS011;27615;51.826;5.692;2022-10-16T03:49:48;2.58;;;1.90;;
41925;SDS011;27615;51.826;5.692;2022-10-16T03:52:14;3.15;;;1.67;;
41925;SDS011;27615;51.826;5.692;2022-10-16T03:54:39;3.30;;;1.88;;
41925;SDS011;27615;51.826;5.692;2022-10-16T03:57:05;4.22;;;1.60;;
41925;SDS011;27615;51.826;5.692;2022-10-16T03:59:30;3.42;;;1.70;;
41925;SDS011;27615;51.826;5.692;2022-10-16T04:01:56;4.28;;;1.88;;
41925;SDS011;27615;51.826;5.692;2022-10-16T04:04:21;3.97;;;1.60;;
41925;SDS011;27615;51.826;5.692;2022-10-16T04:06:47;2.67;;;1.77;;
41925;SDS011;27615;51.826;5.692;2022-10-16T04:09:12;3.65;;;1.88;;
41925;SDS011;27615;51.826;5.692;2022-10-16T04:11:38;6.43;;;1.60;;
41925;SDS011;27615;51.826;5.692;2022-10-16T04:14:04;3.97;;;2.10;;
41925;SDS011;27615;51.826;5.692;2022-10-16T04:16:29;3.70;;;1.60;;
41925;SDS011;27615;51.826;5.692;2022-10-16T04:18:55;2.28;;;1.65;;
41925;SDS011;27615;51.826;5.692;2022-10-16T04:21:20;3.33;;;1.63;;
41925;SDS011;27615;51.826;5.692;2022-10-16T04:23:46;3.78;;;1.77;;
41925;SDS011;27615;51.826;5.692;2022-10-16T04:26:11;2.13;;;1.38;;
41925;SDS011;27615;51.826;5.692;2022-10-16T04:28:37;3.08;;;1.70;;
41925;SDS011;27615;51.826;5.692;2022-10-16T04:31:06;3.63;;;1.50;;
41925;SDS011;27615;51.826;5.692;2022-10-16T04:33:32;4.40;;;1.88;;
41925;SDS011;27615;51.826;5.692;2022-10-16T04:35:58;4.10;;;2.10;;
41925;SDS011;27615;51.826;5.692;2022-10-16T04:38:25;3.35;;;1.80;;
41925;SDS011;27615;51.826;5.692;2022-10-16T04:40:51;4.13;;;2.28;;
41925;SDS011;27615;51.826;5.692;2022-10-16T04:43:17;2.42;;;1.83;;
41925;SDS011;27615;51.826;5.692;2022-10-16T04:45:42;3.22;;;1.80;;
41925;SDS011;27615;51.826;5.692;2022-10-16T04:48:08;4.25;;;1.95;;
41925;SDS011;27615;51.826;5.692;2022-10-16T04:50:34;3.78;;;1.42;;
41925;SDS011;27615;51.826;5.692;2022-10-16T04:52:59;6.43;;;2.08;;
41925;SDS011;27615;51.826;5.692;2022-10-16T04:55:25;3.97;;;1.80;;
41925;SDS011;27615;51.826;5.692;2022-10-16T04:57:50;3.75;;;1.52;;
41925;SDS011;27615;51.826;5.692;2022-10-16T05:00:16;2.15;;;1.50;;
41925;SDS011;27615;51.826;5.692;2022-10-16T05:02:41;5.65;;;2.20;;
41925;SDS011;27615;51.826;5.692;2022-10-16T05:05:07;3.40;;;1.50;;
41925;SDS011;27615;51.826;5.692;2022-10-16T05:07:33;2.25;;;1.38;;
41925;SDS011;27615;51.826;5.692;2022-10-16T05:09:58;3.22;;;1.63;;
41925;SDS011;27615;51.826;5.692;2022-10-16T05:12:24;4.03;;;1.52;;
41925;SDS011;27615;51.826;5.692;2022-10-16T05:14:49;2.78;;;1.42;;
41925;SDS011;27615;51.826;5.692;2022-10-16T05:17:15;3.58;;;1.75;;
41925;SDS011;27615;51.826;5.692;2022-10-16T05:19:40;5.20;;;2.38;;
41925;SDS011;27615;51.826;5.692;2022-10-16T05:22:06;3.40;;;1.77;;
41925;SDS011;27615;51.826;5.692;2022-10-16T05:24:31;3.85;;;1.60;;
41925;SDS011;27615;51.826;5.692;2022-10-16T05:26:57;3.40;;;1.55;;
41925;SDS011;27615;51.826;5.692;2022-10-16T05:29:22;2.50;;;1.52;;
41925;SDS011;27615;51.826;5.692;2022-10-16T05:31:51;3.45;;;1.80;;
41925;SDS011;27615;51.826;5.692;2022-10-16T05:34:18;2.92;;;1.63;;
41925;SDS011;27615;51.826;5.692;2022-10-16T05:36:43;3.80;;;1.70;;
41925;SDS011;27615;51.826;5.692;2022-10-16T05:39:10;2.63;;;1.98;;
41925;SDS011;27615;51.826;5.692;2022-10-16T05:41:35;3.95;;;1.90;;
41925;SDS011;27615;51.826;5.692;2022-10-16T05:44:03;3.63;;;1.90;;
41925;SDS011;27615;51.826;5.692;2022-10-16T05:46:30;2.47;;;1.63;;
41925;SDS011;27615;51.826;5.692;2022-10-16T05:48:56;3.70;;;2.00;;
41925;SDS011;27615;51.826;5.692;2022-10-16T05:51:22;5.63;;;1.90;;
41925;SDS011;27615;51.826;5.692;2022-10-16T05:53:47;3.28;;;1.83;;
41925;SDS011;27615;51.826;5.692;2022-10-16T05:56:13;2.75;;;1.60;;
41925;SDS011;27615;51.826;5.692;2022-10-16T05:58:38;2.70;;;1.77;;
41925;SDS011;27615;51.826;5.692;2022-10-16T06:01:12;2.78;;;2.00;;
41925;SDS011;27615;51.826;5.692;2022-10-16T06:03:39;5.40;;;2.10;;
41925;SDS011;27615;51.826;5.692;2022-10-16T06:06:09;3.45;;;1.90;;
41925;SDS011;27615;51.826;5.692;2022-10-16T06:08:36;4.63;;;1.98;;
41925;SDS011;27615;51.826;5.692;2022-10-16T06:11:05;4.32;;;2.20;;
41925;SDS011;27615;51.826;5.692;2022-10-16T06:13:34;5.32;;;2.30;;
41925;SDS011;27615;51.826;5.692;2022-10-16T06:16:00;3.72;;;1.80;;
41925;SDS011;27615;51.826;5.692;2022-10-16T06:18:27;3.00;;;2.13;;
41925;SDS011;27615;51.826;5.692;2022-10-16T06:20:53;2.05;;;1.52;;
41925;SDS011;27615;51.826;5.692;2022-10-16T06:23:19;3.67;;;2.40;;
41925;SDS011;27615;51.826;5.692;2022-10-16T06:25:45;4.32;;;2.15;;
41925;SDS011;27615;51.826;5.692;2022-10-16T06:28:10;3.60;;;2.00;;
41925;SDS011;27615;51.826;5.692;2022-10-16T06:30:36;3.65;;;2.28;;
41925;SDS011;27615;51.826;5.692;2022-10-16T06:33:01;2.70;;;1.88;;
41925;SDS011;27615;51.826;5.692;2022-10-16T06:35:27;4.05;;;2.03;;
41925;SDS011;27615;51.826;5.692;2022-10-16T06:37:54;4.95;;;2.38;;
41925;SDS011;27615;51.826;5.692;2022-10-16T06:40:19;4.82;;;1.90;;
41925;SDS011;27615;51.826;5.692;2022-10-16T06:42:45;3.22;;;2.00;;
41925;SDS011;27615;51.826;5.692;2022-10-16T06:45:10;4.15;;;2.38;;
41925;SDS011;27615;51.826;5.692;2022-10-16T06:47:37;3.67;;;2.28;;
41925;SDS011;27615;51.826;5.692;2022-10-16T06:50:03;4.07;;;2.35;;
41925;SDS011;27615;51.826;5.692;2022-10-16T06:52:31;3.63;;;2.15;;
41925;SDS011;27615;51.826;5.692;2022-10-16T06:54:57;6.60;;;2.28;;
41925;SDS011;27615;51.826;5.692;2022-10-16T06:57:23;4.53;;;2.30;;
41925;SDS011;27615;51.826;5.692;2022-10-16T06:59:48;3.85;;;2.03;;
41925;SDS011;27615;51.826;5.692;2022-10-16T07:02:14;6.57;;;2.65;;
41925;SDS011;27615;51.826;5.692;2022-10-16T07:04:39;5.18;;;2.55;;
41925;SDS011;27615;51.826;5.692;2022-10-16T07:07:04;6.53;;;2.30;;
41925;SDS011;27615;51.826;5.692;2022-10-16T07:09:30;4.28;;;2.38;;
41925;SDS011;27615;51.826;5.692;2022-10-16T07:11:56;4.80;;;2.42;;
41925;SDS011;27615;51.826;5.692;2022-10-16T07:14:21;4.72;;;2.20;;
41925;SDS011;27615;51.826;5.692;2022-10-16T07:16:47;4.60;;;2.20;;
41925;SDS011;27615;51.826;5.692;2022-10-16T07:19:13;4.78;;;2.20;;
41925;SDS011;27615;51.826;5.692;2022-10-16T07:21:40;7.97;;;2.33;;
41925;SDS011;27615;51.826;5.692;2022-10-16T07:24:10;4.10;;;2.40;;
41925;SDS011;27615;51.826;5.692;2022-10-16T07:29:56;3.33;;;1.88;;
41925;SDS011;27615;51.826;5.692;2022-10-16T07:32:22;4.65;;;1.83;;
41925;SDS011;27615;51.826;5.692;2022-10-16T07:37:55;4.55;;;1.52;;
41925;SDS011;27615;51.826;5.692;2022-10-16T07:51:00;4.40;;;1.65;;
41925;SDS011;27615;51.826;5.692;2022-10-16T07:53:27;4.18;;;1.92;;
41925;SDS011;27615;51.826;5.692;2022-10-16T07:59:13;4.30;;;1.63;;
41925;SDS011;27615;51.826;5.692;2022-10-16T08:01:39;4.43;;;1.67;;
41925;SDS011;27615;51.826;5.692;2022-10-16T08:04:08;4.70;;;1.85;;
41925;SDS011;27615;51.826;5.692;2022-10-16T08:06:35;6.47;;;1.63;;
41925;SDS011;27615;51.826;5.692;2022-10-16T08:09:08;2.72;;;1.48;;
41925;SDS011;27615;51.826;5.692;2022-10-16T08:11:44;3.53;;;1.50;;
41925;SDS011;27615;51.826;5.692;2022-10-16T08:14:09;4.22;;;1.70;;
41925;SDS011;27615;51.826;5.692;2022-10-16T08:16:35;4.47;;;1.73;;
41925;SDS011;27615;51.826;5.692;2022-10-16T08:19:00;3.83;;;1.40;;
41925;SDS011;27615;51.826;5.692;2022-10-16T08:21:26;4.93;;;1.60;;
41925;SDS011;27615;51.826;5.692;2022-10-16T08:23:52;4.28;;;1.50;;
41925;SDS011;27615;51.826;5.692;2022-10-16T08:26:18;2.97;;;1.77;;
41925;SDS011;27615;51.826;5.692;2022-10-16T08:28:44;4.15;;;1.50;;
41925;SDS011;27615;51.826;5.692;2022-10-16T08:31:11;2.55;;;1.20;;
41925;SDS011;27615;51.826;5.692;2022-10-16T08:33:38;2.83;;;1.00;;
41925;SDS011;27615;51.826;5.692;2022-10-16T08:36:06;2.78;;;1.40;;
41925;SDS011;27615;51.826;5.692;2022-10-16T08:38:32;2.72;;;1.27;;
41925;SDS011;27615;51.826;5.692;2022-10-16T08:49:53;4.40;;;1.30;;
41925;SDS011;27615;51.826;5.692;2022-10-16T08:52:23;5.85;;;1.13;;
41925;SDS011;27615;51.826;5.692;2022-10-16T08:54:54;4.22;;;1.17;;
41925;SDS011;27615;51.826;5.692;2022-10-16T08:57:21;3.95;;;1.13;;
41925;SDS011;27615;51.826;5.692;2022-10-16T08:59:47;6.00;;;1.60;;
41925;SDS011;27615;51.826;5.692;2022-10-16T09:02:24;3.30;;;0.90;;
41925;SDS011;27615;51.826;5.692;2022-10-16T09:07:46;3.88;;;1.55;;
41925;SDS011;27615;51.826;5.692;2022-10-16T09:10:35;5.15;;;1.15;;
41925;SDS011;27615;51.826;5.692;2022-10-16T09:13:17;5.22;;;1.35;;
41925;SDS011;27615;51.826;5.692;2022-10-16T09:19:12;4.47;;;1.17;;
41925;SDS011;27615;51.826;5.692;2022-10-16T09:21:44;3.13;;;1.08;;
41925;SDS011;27615;51.826;5.692;2022-10-16T09:24:14;5.63;;;1.08;;
41925;SDS011;27615;51.826;5.692;2022-10-16T09:26:44;3.55;;;1.30;;
41925;SDS011;27615;51.826;5.692;2022-10-16T09:29:12;2.65;;;0.98;;
41925;SDS011;27615;51.826;5.692;2022-10-16T09:31:38;5.15;;;1.02;;
41925;SDS011;27615;51.826;5.692;2022-10-16T09:34:04;2.65;;;1.10;;
41925;SDS011;27615;51.826;5.692;2022-10-16T09:36:35;4.75;;;1.00;;
41925;SDS011;27615;51.826;5.692;2022-10-16T09:39:07;4.75;;;1.10;;
41925;SDS011;27615;51.826;5.692;2022-10-16T09:41:35;6.72;;;1.23;;
41925;SDS011;27615;51.826;5.692;2022-10-16T09:44:05;4.47;;;1.27;;
41925;SDS011;27615;51.826;5.692;2022-10-16T09:46:40;2.50;;;0.90;;
41925;SDS011;27615;51.826;5.692;2022-10-16T09:49:19;8.43;;;1.15;;
41925;SDS011;27615;51.826;5.692;2022-10-16T09:51:50;5.60;;;1.42;;
41925;SDS011;27615;51.826;5.692;2022-10-16T09:54:17;4.32;;;2.05;;
41925;SDS011;27615;51.826;5.692;2022-10-16T09:56:45;7.65;;;1.13;;
41925;SDS011;27615;51.826;5.692;2022-10-16T09:59:17;5.43;;;0.90;;
41925;SDS011;27615;51.826;5.692;2022-10-16T10:04:11;7.22;;;1.70;;
41925;SDS011;27615;51.826;5.692;2022-10-16T10:06:41;3.88;;;0.93;;
41925;SDS011;27615;51.826;5.692;2022-10-16T10:09:22;3.90;;;0.98;;
41925;SDS011;27615;51.826;5.692;2022-10-16T10:11:53;4.13;;;0.90;;
41925;SDS011;27615;51.826;5.692;2022-10-16T10:14:26;4.93;;;0.75;;
41925;SDS011;27615;51.826;5.692;2022-10-16T10:19:36;6.37;;;1.07;;
41925;SDS011;27615;51.826;5.692;2022-10-16T10:30:32;3.55;;;1.20;;
41925;SDS011;27615;51.826;5.692;2022-10-16T10:36:05;3.15;;;0.90;;
41925;SDS011;27615;51.826;5.692;2022-10-16T10:38:41;3.05;;;0.93;;
41925;SDS011;27615;51.826;5.692;2022-10-16T10:41:28;4.57;;;1.00;;
41925;SDS011;27615;51.826;5.692;2022-10-16T10:46:50;3.95;;;1.00;;
41925;SDS011;27615;51.826;5.692;2022-10-16T10:49:24;3.40;;;0.98;;
41925;SDS011;27615;51.826;5.692;2022-10-16T10:51:59;3.90;;;1.00;;
41925;SDS011;27615;51.826;5.692;2022-10-16T10:54:36;2.25;;;0.95;;
41925;SDS011;27615;51.826;5.692;2022-10-16T10:57:22;5.03;;;1.60;;
41925;SDS011;27615;51.826;5.692;2022-10-16T10:59:57;4.22;;;1.20;;
41925;SDS011;27615;51.826;5.692;2022-10-16T11:02:33;3.42;;;1.17;;
41925;SDS011;27615;51.826;5.692;2022-10-16T11:07:43;3.80;;;1.00;;
41925;SDS011;27615;51.826;5.692;2022-10-16T11:10:23;4.05;;;1.10;;
41925;SDS011;27615;51.826;5.692;2022-10-16T11:12:54;3.47;;;1.17;;
41925;SDS011;27615;51.826;5.692;2022-10-16T11:15:40;3.17;;;0.98;;
41925;SDS011;27615;51.826;5.692;2022-10-16T11:18:12;4.15;;;1.00;;
41925;SDS011;27615;51.826;5.692;2022-10-16T11:20:57;3.97;;;1.30;;
41925;SDS011;27615;51.826;5.692;2022-10-16T11:23:28;3.15;;;1.02;;
41925;SDS011;27615;51.826;5.692;2022-10-16T11:26:11;3.65;;;1.27;;
41925;SDS011;27615;51.826;5.692;2022-10-16T11:28:59;4.97;;;1.58;;
41925;SDS011;27615;51.826;5.692;2022-10-16T11:34:26;3.33;;;1.00;;
41925;SDS011;27615;51.826;5.692;2022-10-16T11:37:04;3.70;;;1.20;;
41925;SDS011;27615;51.826;5.692;2022-10-16T11:39:39;3.63;;;1.08;;
41925;SDS011;27615;51.826;5.692;2022-10-16T11:47:36;3.17;;;1.08;;
41925;SDS011;27615;51.826;5.692;2022-10-16T11:52:44;2.75;;;1.13;;
41925;SDS011;27615;51.826;5.692;2022-10-16T11:55:39;4.47;;;1.30;;
41925;SDS011;27615;51.826;5.692;2022-10-16T12:00:59;7.82;;;1.80;;
41925;SDS011;27615;51.826;5.692;2022-10-16T12:03:58;4.90;;;1.38;;
41925;SDS011;27615;51.826;5.692;2022-10-16T12:09:24;4.18;;;1.33;;
41925;SDS011;27615;51.826;5.692;2022-10-16T12:11:52;2.72;;;1.08;;
41925;SDS011;27615;51.826;5.692;2022-10-16T12:14:32;2.03;;;1.02;;
41925;SDS011;27615;51.826;5.692;2022-10-16T12:17:00;4.32;;;1.77;;
41925;SDS011;27615;51.826;5.692;2022-10-16T12:25:23;6.15;;;1.38;;
41925;SDS011;27615;51.826;5.692;2022-10-16T12:27:56;5.43;;;1.10;;
41925;SDS011;27615;51.826;5.692;2022-10-16T12:30:27;4.32;;;1.42;;
41925;SDS011;27615;51.826;5.692;2022-10-16T12:32:56;4.18;;;1.20;;
41925;SDS011;27615;51.826;5.692;2022-10-16T12:35:25;3.33;;;1.40;;
41925;SDS011;27615;51.826;5.692;2022-10-16T12:37:54;5.85;;;1.10;;
41925;SDS011;27615;51.826;5.692;2022-10-16T12:40:39;4.85;;;1.20;;
41925;SDS011;27615;51.826;5.692;2022-10-16T12:43:12;5.63;;;1.40;;
41925;SDS011;27615;51.826;5.692;2022-10-16T12:45:59;5.03;;;1.38;;
41925;SDS011;27615;51.826;5.692;2022-10-16T12:48:26;3.05;;;1.00;;
41925;SDS011;27615;51.826;5.692;2022-10-16T12:50:54;3.63;;;1.20;;
41925;SDS011;27615;51.826;5.692;2022-10-16T12:53:20;4.70;;;1.08;;
41925;SDS011;27615;51.826;5.692;2022-10-16T12:58:41;4.00;;;1.23;;
41925;SDS011;27615;51.826;5.692;2022-10-16T13:10:19;6.32;;;1.35;;
41925;SDS011;27615;51.826;5.692;2022-10-16T13:18:16;3.40;;;0.80;;
41925;SDS011;27615;51.826;5.692;2022-10-16T13:23:32;2.60;;;1.02;;
41925;SDS011;27615;51.826;5.692;2022-10-16T13:28:57;4.18;;;1.13;;
41925;SDS011;27615;51.826;5.692;2022-10-16T13:31:25;4.60;;;1.65;;
41925;SDS011;27615;51.826;5.692;2022-10-16T13:33:51;5.03;;;1.10;;
41925;SDS011;27615;51.826;5.692;2022-10-16T13:36:33;4.57;;;1.13;;
41925;SDS011;27615;51.826;5.692;2022-10-16T13:39:07;4.70;;;0.90;;
41925;SDS011;27615;51.826;5.692;2022-10-16T13:41:39;2.33;;;0.93;;
41925;SDS011;27615;51.826;5.692;2022-10-16T13:44:08;3.05;;;1.00;;
41925;SDS011;27615;51.826;5.692;2022-10-16T13:46:44;3.75;;;0.90;;
41925;SDS011;27615;51.826;5.692;2022-10-16T13:49:14;3.83;;;1.30;;
41925;SDS011;27615;51.826;5.692;2022-10-16T13:51:40;5.30;;;0.88;;
41925;SDS011;27615;51.826;5.692;2022-10-16T13:54:09;2.92;;;1.15;;
41925;SDS011;27615;51.826;5.692;2022-10-16T13:56:35;2.38;;;0.90;;
41925;SDS011;27615;51.826;5.692;2022-10-16T13:59:05;2.90;;;0.90;;
41925;SDS011;27615;51.826;5.692;2022-10-16T14:01:35;3.30;;;0.73;;
41925;SDS011;27615;51.826;5.692;2022-10-16T14:04:07;2.70;;;1.08;;
41925;SDS011;27615;51.826;5.692;2022-10-16T14:06:35;3.38;;;0.98;;
41925;SDS011;27615;51.826;5.692;2022-10-16T14:11:49;4.75;;;1.10;;
41925;SDS011;27615;51.826;5.692;2022-10-16T14:14:18;4.00;;;1.33;;
41925;SDS011;27615;51.826;5.692;2022-10-16T14:16:44;3.28;;;0.95;;
41925;SDS011;27615;51.826;5.692;2022-10-16T14:19:21;4.00;;;0.88;;
41925;SDS011;27615;51.826;5.692;2022-10-16T14:21:50;4.60;;;1.17;;
41925;SDS011;27615;51.826;5.692;2022-10-16T14:24:22;5.40;;;1.23;;
41925;SDS011;27615;51.826;5.692;2022-10-16T14:26:52;3.88;;;1.10;;
41925;SDS011;27615;51.826;5.692;2022-10-16T14:29:21;4.57;;;1.08;;
41925;SDS011;27615;51.826;5.692;2022-10-16T14:34:32;6.13;;;1.25;;
41925;SDS011;27615;51.826;5.692;2022-10-16T14:37:13;6.18;;;1.20;;
41925;SDS011;27615;51.826;5.692;2022-10-16T14:39:42;7.25;;;1.38;;
41925;SDS011;27615;51.826;5.692;2022-10-16T14:42:14;6.97;;;1.45;;
41925;SDS011;27615;51.826;5.692;2022-10-16T14:44:42;4.93;;;1.55;;
41925;SDS011;27615;51.826;5.692;2022-10-16T14:47:09;5.85;;;1.10;;
41925;SDS011;27615;51.826;5.692;2022-10-16T14:49:42;5.85;;;1.23;;
41925;SDS011;27615;51.826;5.692;2022-10-16T14:52:08;3.75;;;1.30;;
41925;SDS011;27615;51.826;5.692;2022-10-16T14:54:36;3.03;;;0.60;;
41925;SDS011;27615;51.826;5.692;2022-10-16T14:57:01;4.82;;;1.23;;
41925;SDS011;27615;51.826;5.692;2022-10-16T14:59:37;5.82;;;1.00;;
41925;SDS011;27615;51.826;5.692;2022-10-16T15:04:39;6.00;;;1.00;;
41925;SDS011;27615;51.826;5.692;2022-10-16T15:07:05;5.90;;;1.15;;
41925;SDS011;27615;51.826;5.692;2022-10-16T15:09:32;5.00;;;0.90;;
41925;SDS011;27615;51.826;5.692;2022-10-16T15:11:57;4.85;;;1.42;;
41925;SDS011;27615;51.826;5.692;2022-10-16T15:14:23;7.03;;;1.25;;
41925;SDS011;27615;51.826;5.692;2022-10-16T15:16:48;3.58;;;0.80;;
41925;SDS011;27615;51.826;5.692;2022-10-16T15:19:13;3.47;;;0.82;;
41925;SDS011;27615;51.826;5.692;2022-10-16T15:21:39;3.33;;;0.73;;
41925;SDS011;27615;51.826;5.692;2022-10-16T15:24:08;2.22;;;0.57;;
41925;SDS011;27615;51.826;5.692;2022-10-16T15:26:37;3.88;;;0.80;;
41925;SDS011;27615;51.826;5.692;2022-10-16T15:29:03;4.45;;;0.90;;
41925;SDS011;27615;51.826;5.692;2022-10-16T15:31:29;2.20;;;0.55;;
41925;SDS011;27615;51.826;5.692;2022-10-16T15:33:55;1.45;;;0.52;;
41925;SDS011;27615;51.826;5.692;2022-10-16T15:36:27;3.03;;;0.60;;
41925;SDS011;27615;51.826;5.692;2022-10-16T15:38:53;2.95;;;0.60;;
41925;SDS011;27615;51.826;5.692;2022-10-16T15:41:19;2.70;;;0.70;;
41925;SDS011;27615;51.826;5.692;2022-10-16T15:43:46;3.55;;;0.70;;
41925;SDS011;27615;51.826;5.692;2022-10-16T15:46:13;3.33;;;0.73;;
41925;SDS011;27615;51.826;5.692;2022-10-16T15:48:40;3.72;;;0.80;;
41925;SDS011;27615;51.826;5.692;2022-10-16T15:51:06;6.85;;;0.93;;
41925;SDS011;27615;51.826;5.692;2022-10-16T15:53:32;3.65;;;0.75;;
41925;SDS011;27615;51.826;5.692;2022-10-16T15:56:01;5.45;;;1.40;;
41925;SDS011;27615;51.826;5.692;2022-10-16T15:58:27;5.43;;;0.70;;
41925;SDS011;27615;51.826;5.692;2022-10-16T16:00:54;4.00;;;0.73;;
41925;SDS011;27615;51.826;5.692;2022-10-16T16:03:20;2.90;;;0.60;;
41925;SDS011;27615;51.826;5.692;2022-10-16T16:05:46;1.98;;;0.65;;
41925;SDS011;27615;51.826;5.692;2022-10-16T16:08:11;4.85;;;1.00;;
41925;SDS011;27615;51.826;5.692;2022-10-16T16:10:37;4.05;;;0.90;;
41925;SDS011;27615;51.826;5.692;2022-10-16T16:13:02;3.83;;;0.95;;
41925;SDS011;27615;51.826;5.692;2022-10-16T16:15:28;2.92;;;0.70;;
41925;SDS011;27615;51.826;5.692;2022-10-16T16:17:53;3.05;;;0.90;;
41925;SDS011;27615;51.826;5.692;2022-10-16T16:20:19;6.60;;;0.75;;
41925;SDS011;27615;51.826;5.692;2022-10-16T16:22:44;4.28;;;0.80;;
41925;SDS011;27615;51.826;5.692;2022-10-16T16:25:10;5.72;;;1.00;;
41925;SDS011;27615;51.826;5.692;2022-10-16T16:27:36;5.57;;;1.30;;
41925;SDS011;27615;51.826;5.692;2022-10-16T16:30:03;4.97;;;0.80;;
41925;SDS011;27615;51.826;5.692;2022-10-16T16:32:32;5.93;;;1.00;;
41925;SDS011;27615;51.826;5.692;2022-10-16T16:34:58;5.53;;;1.02;;
41925;SDS011;27615;51.826;5.692;2022-10-16T16:37:23;2.88;;;0.80;;
41925;SDS011;27615;51.826;5.692;2022-10-16T16:39:49;4.05;;;1.10;;
41925;SDS011;27615;51.826;5.692;2022-10-16T16:42:14;3.80;;;0.90;;
41925;SDS011;27615;51.826;5.692;2022-10-16T16:44:41;6.65;;;1.08;;
41925;SDS011;27615;51.826;5.692;2022-10-16T16:47:06;5.10;;;1.30;;
41925;SDS011;27615;51.826;5.692;2022-10-16T16:49:32;5.18;;;1.50;;
41925;SDS011;27615;51.826;5.692;2022-10-16T16:51:57;3.15;;;0.88;;
41925;SDS011;27615;51.826;5.692;2022-10-16T16:54:23;5.43;;;0.70;;
41925;SDS011;27615;51.826;5.692;2022-10-16T16:56:49;3.50;;;0.80;;
41925;SDS011;27615;51.826;5.692;2022-10-16T16:59:15;6.40;;;1.23;;
41925;SDS011;27615;51.826;5.692;2022-10-16T17:01:44;11.60;;;1.67;;
41925;SDS011;27615;51.826;5.692;2022-10-16T17:04:10;6.60;;;1.17;;